Time;durP1;ratioP1;P1;durP2;ratioP2;P2;SDS_P1;SDS_P2;PMS_P1;PMS_P2;Temp;Humidity;BMP_temperature;BMP_pressure;BME280_temperature;BME280_humidity;BME280_pressure;Samples;Min_cycle;Max_cycle;Signal;HPM_P1;HPM_P2
2020/12/23 00:02:19;;;;;;;33.77;20.17;;;;;;;8.05;94.49;100157.59;5125168;28;20996;-71
2020/12/23 00:04:45;;;;;;;37.20;23.20;;;;;;;8.08;94.16;100150.22;5125625;28;20457;-75
2020/12/23 00:07:14;;;;;;;31.30;20.03;;;;;;;8.08;94.09;100152.88;5123818;28;20488;-73
2020/12/23 00:09:41;;;;;;;29.23;20.70;;;;;;;8.01;94.40;100137.53;5125983;28;20481;-73
2020/12/23 00:12:07;;;;;;;29.83;20.13;;;;;;;8.10;94.10;100140.28;5117065;28;20557;-69
2020/12/23 00:14:34;;;;;;;31.20;19.87;;;;;;;8.21;94.08;100141.19;5104682;28;20471;-69
2020/12/23 00:17:00;;;;;;;33.50;19.70;;;;;;;8.19;94.08;100143.16;5109612;28;20484;-69
2020/12/23 00:19:26;;;;;;;29.10;19.10;;;;;;;8.20;93.93;100144.84;5126203;28;20458;-74
2020/12/23 00:21:53;;;;;;;30.17;18.97;;;;;;;8.26;93.92;100131.00;5119374;28;20469;-74
2020/12/23 00:24:19;;;;;;;31.23;19.30;;;;;;;8.24;93.82;100136.47;5127041;28;20503;-74
2020/12/23 00:26:45;;;;;;;28.57;19.10;;;;;;;8.31;93.78;100139.44;5125402;28;20478;-73
2020/12/23 00:29:11;;;;;;;26.17;19.03;;;;;;;8.28;93.54;100142.38;5121937;28;20451;-74
2020/12/23 00:31:38;;;;;;;30.60;19.60;;;;;;;8.38;92.82;100145.13;5110459;28;20494;-73
2020/12/23 00:34:05;;;;;;;24.30;17.63;;;;;;;8.40;92.60;100143.16;5127243;28;20485;-73
2020/12/23 00:36:31;;;;;;;28.70;17.60;;;;;;;8.37;92.81;100146.94;5122764;28;20525;-73
2020/12/23 00:38:57;;;;;;;33.50;20.57;;;;;;;8.37;93.03;100148.78;5127830;28;20437;-74
2020/12/23 00:41:24;;;;;;;28.93;18.40;;;;;;;8.50;92.13;100153.94;5125153;28;20516;-73
2020/12/23 00:43:50;;;;;;;26.80;18.00;;;;;;;8.61;92.15;100161.84;5125794;28;20949;-73
2020/12/23 00:46:16;;;;;;;24.83;18.10;;;;;;;8.54;91.82;100163.34;5104814;28;20474;-73
2020/12/23 00:48:43;;;;;;;24.87;16.90;;;;;;;8.55;91.66;100155.22;5106887;28;20431;-73
2020/12/23 00:51:11;;;;;;;23.40;16.67;;;;;;;8.69;91.25;100156.72;5105492;28;20479;-73
2020/12/23 00:53:37;;;;;;;24.33;16.80;;;;;;;8.69;91.18;100158.53;5106436;28;20463;-73
2020/12/23 00:56:04;;;;;;;30.83;18.83;;;;;;;8.48;91.81;100156.72;5122830;28;20494;-73
2020/12/23 00:58:30;;;;;;;28.33;17.70;;;;;;;8.30;92.36;100138.63;5111874;28;20439;-73
2020/12/23 01:00:56;;;;;;;24.70;17.17;;;;;;;8.32;92.75;100149.16;5105058;28;20516;-74
2020/12/23 01:03:22;;;;;;;26.50;17.80;;;;;;;8.30;92.73;100153.75;5107241;28;20485;-74
2020/12/23 01:05:49;;;;;;;24.73;17.10;;;;;;;8.18;92.74;100146.81;5104526;28;20499;-73
2020/12/23 01:08:15;;;;;;;29.60;19.40;;;;;;;8.17;93.38;100148.59;5117737;28;20508;-73
2020/12/23 01:10:44;;;;;;;30.80;20.43;;;;;;;8.01;93.41;100148.19;5125033;28;20538;-73
2020/12/23 01:13:10;;;;;;;25.83;18.93;;;;;;;8.06;93.78;100152.16;5115012;28;20463;-73
2020/12/23 01:15:36;;;;;;;26.30;18.90;;;;;;;8.08;93.47;100149.38;5104740;28;20505;-73
2020/12/23 01:18:02;;;;;;;32.50;20.10;;;;;;;8.01;93.76;100137.53;5114308;28;20466;-73
2020/12/23 01:20:29;;;;;;;29.20;20.90;;;;;;;8.01;93.66;100138.38;5120365;28;20480;-73
2020/12/23 01:22:56;;;;;;;29.50;18.30;;;;;;;8.01;93.46;100143.69;5106341;28;20475;-73
2020/12/23 01:25:22;;;;;;;33.50;20.63;;;;;;;8.00;93.63;100146.50;5104458;28;20484;-73
2020/12/23 01:27:48;;;;;;;29.67;19.53;;;;;;;8.04;93.58;100148.78;5126990;28;20430;-74
2020/12/23 01:30:16;;;;;;;36.50;23.13;;;;;;;8.07;93.62;100153.84;5124289;28;20474;-73
2020/12/23 01:32:42;;;;;;;31.03;21.40;;;;;;;8.26;92.79;100149.66;5106571;28;20477;-73
2020/12/23 01:35:08;;;;;;;28.70;21.30;;;;;;;8.31;92.38;100147.44;5104874;28;20431;-73
2020/12/23 01:37:34;;;;;;;34.40;20.73;;;;;;;8.14;92.51;100151.50;5116574;28;21001;-73
2020/12/23 01:40:01;;;;;;;33.33;22.50;;;;;;;8.14;92.69;100148.84;5124970;28;20446;-72
2020/12/23 01:42:27;;;;;;;28.53;20.20;;;;;;;8.11;92.97;100151.78;5124707;28;21006;-73
2020/12/23 01:44:53;;;;;;;28.53;20.87;;;;;;;8.06;93.43;100148.66;5124819;28;20450;-73
2020/12/23 01:47:22;;;;;;;29.80;19.27;;;;;;;8.13;93.32;100151.66;5125040;28;20466;-75
2020/12/23 01:49:48;;;;;;;28.67;20.37;;;;;;;8.09;93.04;100143.09;5112696;28;20851;-73
2020/12/23 01:52:15;;;;;;;27.90;20.30;;;;;;;8.06;93.27;100152.16;5106637;28;20483;-73
2020/12/23 01:54:41;;;;;;;29.70;21.00;;;;;;;8.01;93.63;100154.34;5124096;28;20462;-73
2020/12/23 01:57:09;;;;;;;30.33;20.63;;;;;;;7.94;93.88;100139.03;5124732;28;20474;-73
2020/12/23 01:59:36;;;;;;;28.47;21.83;;;;;;;7.94;93.75;100137.19;5106746;28;20471;-73
2020/12/23 02:02:13;;;;;;;32.43;20.27;;;;;;;7.94;93.64;100147.00;5103727;28;21021;-74
2020/12/23 02:04:39;;;;;;;31.07;19.90;;;;;;;7.89;94.09;100142.06;5123799;28;20449;-73
2020/12/23 02:07:05;;;;;;;30.80;22.10;;;;;;;7.89;94.08;100150.88;5108466;28;20479;-73
2020/12/23 02:09:32;;;;;;;31.40;21.10;;;;;;;7.98;93.73;100143.13;5125034;28;20474;-73
2020/12/23 02:11:58;;;;;;;29.47;21.27;;;;;;;7.94;93.69;100155.00;5124173;28;20576;-73
2020/12/23 02:14:25;;;;;;;28.67;21.03;;;;;;;7.90;94.27;100143.75;5104838;28;20462;-73
2020/12/23 02:16:51;;;;;;;32.63;21.50;;;;;;;7.89;94.39;100150.88;5103199;28;20471;-73
2020/12/23 02:19:18;;;;;;;33.77;22.03;;;;;;;7.88;94.56;100143.88;5123002;28;20534;-73
2020/12/23 02:21:44;;;;;;;33.10;22.40;;;;;;;7.87;94.00;100152.81;5112629;28;20540;-73
2020/12/23 02:24:11;;;;;;;37.30;22.03;;;;;;;7.85;94.35;100149.44;5105285;28;20455;-73
2020/12/23 02:26:37;;;;;;;40.60;23.40;;;;;;;7.94;94.46;100161.16;5112260;28;20474;-73
2020/12/23 02:29:04;;;;;;;33.63;22.30;;;;;;;8.02;93.74;100155.19;5125622;28;20433;-73
2020/12/23 02:31:30;;;;;;;29.90;20.10;;;;;;;8.00;93.55;100152.69;5121385;28;20474;-73
2020/12/23 02:33:56;;;;;;;32.00;21.47;;;;;;;7.92;93.98;100152.47;5123551;28;20446;-73
2020/12/23 02:36:22;;;;;;;33.27;22.67;;;;;;;7.95;93.96;100149.56;5115421;28;20597;-73
2020/12/23 02:38:48;;;;;;;34.27;22.73;;;;;;;7.94;93.52;100144.34;5105508;28;20427;-73
2020/12/23 02:41:15;;;;;;;33.30;21.57;;;;;;;7.86;94.03;100143.16;5111558;28;20477;-73
2020/12/23 02:43:41;;;;;;;32.77;22.17;;;;;;;7.88;94.29;100145.69;5124605;28;20991;-73
2020/12/23 02:46:08;;;;;;;39.13;22.27;;;;;;;7.88;94.05;100138.56;5124239;28;20461;-73
2020/12/23 02:48:34;;;;;;;30.13;21.43;;;;;;;7.93;93.74;100143.47;5109710;28;20439;-73
2020/12/23 02:51:00;;;;;;;36.47;23.30;;;;;;;7.92;93.75;100139.97;5120187;28;21047;-73
2020/12/23 02:53:26;;;;;;;49.53;25.10;;;;;;;7.70;94.31;100142.72;5109480;28;20454;-73
2020/12/23 02:55:52;;;;;;;35.23;22.37;;;;;;;7.67;94.36;100140.28;5126650;28;20473;-73
2020/12/23 02:58:19;;;;;;;35.87;22.90;;;;;;;7.62;95.08;100138.03;5129936;28;20437;-73
2020/12/23 03:00:45;;;;;;;34.57;22.80;;;;;;;7.63;94.98;100134.38;5118439;28;20475;-73
2020/12/23 03:03:12;;;;;;;34.00;21.33;;;;;;;7.70;94.89;100129.41;5108565;28;20462;-72
2020/12/23 03:05:38;;;;;;;33.43;23.57;;;;;;;7.75;94.96;100118.41;5119489;28;20510;-73
2020/12/23 03:08:04;;;;;;;33.20;22.50;;;;;;;7.66;94.90;100117.34;5108975;28;20478;-73
2020/12/23 03:10:30;;;;;;;35.70;23.60;;;;;;;7.73;95.02;100115.84;5106606;28;20474;-73
2020/12/23 03:12:56;;;;;;;34.20;21.43;;;;;;;7.78;94.75;100116.31;5107852;28;20422;-73
2020/12/23 03:15:23;;;;;;;36.50;23.00;;;;;;;7.72;94.68;100104.38;5106708;28;21000;-73
2020/12/23 03:17:49;;;;;;;35.60;23.63;;;;;;;7.67;94.93;100100.38;5108771;28;20471;-73
2020/12/23 03:20:15;;;;;;;34.87;22.87;;;;;;;7.74;94.72;100101.56;5106115;28;20450;-73
2020/12/23 03:22:42;;;;;;;38.83;25.27;;;;;;;7.67;95.29;100095.06;5107816;28;20422;-73
2020/12/23 03:25:08;;;;;;;39.33;24.13;;;;;;;7.76;95.20;100104.97;5107028;28;20439;-72
2020/12/23 03:27:34;;;;;;;38.77;23.73;;;;;;;7.79;95.17;100096.72;5108610;28;20495;-73
2020/12/23 03:30:00;;;;;;;36.63;24.83;;;;;;;7.79;94.85;100093.22;5108270;28;20470;-73
2020/12/23 03:32:27;;;;;;;38.63;23.80;;;;;;;7.78;94.60;100099.50;5105910;28;20482;-73
2020/12/23 03:34:53;;;;;;;36.10;23.40;;;;;;;7.80;94.50;100093.09;5108338;28;20450;-73
2020/12/23 03:37:19;;;;;;;32.60;22.53;;;;;;;7.76;94.80;100094.31;5105939;28;20997;-73
2020/12/23 03:39:46;;;;;;;46.40;26.60;;;;;;;7.86;94.94;100081.09;5108496;28;20476;-73
2020/12/23 03:42:12;;;;;;;40.10;24.83;;;;;;;7.78;94.69;100091.50;5106124;28;20481;-73
2020/12/23 03:44:38;;;;;;;47.93;27.20;;;;;;;7.79;95.18;100085.22;5107688;28;20478;-73
2020/12/23 03:47:04;;;;;;;39.53;25.57;;;;;;;7.72;95.34;100096.41;5106106;28;20544;-73
2020/12/23 03:49:31;;;;;;;39.93;25.73;;;;;;;7.74;95.07;100088.25;5107955;28;20471;-73
2020/12/23 03:51:57;;;;;;;38.40;23.87;;;;;;;7.93;94.84;100090.25;5104970;28;20545;-73
2020/12/23 03:54:23;;;;;;;45.07;25.10;;;;;;;7.90;94.83;100080.72;5108278;28;20469;-73
2020/12/23 03:56:49;;;;;;;44.73;25.97;;;;;;;7.96;94.45;100073.19;5105870;28;20502;-73
2020/12/23 03:59:15;;;;;;;40.27;26.07;;;;;;;7.85;94.66;100066.94;5108023;28;20427;-73
2020/12/23 04:01:42;;;;;;;39.17;25.10;;;;;;;7.85;94.41;100061.63;5105013;28;20479;-73
2020/12/23 04:04:08;;;;;;;34.20;24.30;;;;;;;7.81;94.62;100064.66;5107722;28;20482;-73
2020/12/23 04:06:35;;;;;;;43.63;23.73;;;;;;;7.80;94.77;100065.63;5105059;28;20505;-73
2020/12/23 04:09:01;;;;;;;43.23;25.33;;;;;;;7.79;94.82;100069.25;5121880;28;20469;-73
2020/12/23 04:11:27;;;;;;;45.17;25.80;;;;;;;8.01;94.92;100085.13;5125526;28;20718;-72
2020/12/23 04:13:53;;;;;;;39.13;25.30;;;;;;;7.93;94.45;100076.94;5126935;28;20449;-73
2020/12/23 04:16:19;;;;;;;46.30;25.63;;;;;;;7.92;94.44;100076.09;5126281;28;20511;-73
2020/12/23 04:18:45;;;;;;;43.93;25.30;;;;;;;7.90;94.48;100072.72;5128020;28;20438;-73
2020/12/23 04:21:12;;;;;;;40.23;23.60;;;;;;;7.85;95.06;100074.91;5125061;28;20485;-72
2020/12/23 04:23:39;;;;;;;39.30;23.83;;;;;;;7.94;94.93;100069.81;5127730;28;20449;-73
2020/12/23 04:26:05;;;;;;;39.50;23.00;;;;;;;7.90;94.84;100071.88;5126178;28;20478;-73
2020/12/23 04:28:31;;;;;;;41.03;25.03;;;;;;;7.79;94.98;100077.25;5127516;28;20439;-73
2020/12/23 04:30:57;;;;;;;44.67;25.60;;;;;;;7.77;95.31;100076.53;5125705;28;20502;-73
2020/12/23 04:33:23;;;;;;;46.70;25.53;;;;;;;7.82;95.22;100066.34;5127068;28;20446;-73
2020/12/23 04:35:49;;;;;;;42.30;25.23;;;;;;;7.84;94.83;100065.22;5125186;28;20926;-73
2020/12/23 04:38:15;;;;;;;41.67;23.83;;;;;;;7.84;95.31;100065.22;5127698;28;20434;-73
2020/12/23 04:40:42;;;;;;;41.03;23.67;;;;;;;7.80;95.59;100063.81;5125364;28;20536;-72
2020/12/23 04:43:09;;;;;;;43.53;24.50;;;;;;;7.82;95.21;100059.19;5126560;28;20449;-73
2020/12/23 04:45:36;;;;;;;38.07;22.80;;;;;;;7.84;95.36;100065.22;5125869;28;20472;-73
2020/12/23 04:48:03;;;;;;;38.70;22.90;;;;;;;7.88;95.28;100068.47;5127315;28;20419;-73
2020/12/23 04:50:32;;;;;;;44.17;23.53;;;;;;;7.88;95.42;100066.69;5124859;28;20473;-73
2020/12/23 04:52:58;;;;;;;34.17;22.20;;;;;;;7.91;95.20;100068.25;5126486;28;20490;-74
2020/12/23 04:55:25;;;;;;;40.20;23.60;;;;;;;7.83;95.20;100068.88;5125708;28;20470;-73
2020/12/23 04:57:55;;;;;;;44.33;24.83;;;;;;;7.91;95.26;100071.72;5126618;28;20442;-73
2020/12/23 05:00:21;;;;;;;42.07;24.20;;;;;;;7.93;95.05;100068.94;5125524;28;20446;-73
2020/12/23 05:02:47;;;;;;;39.47;22.07;;;;;;;7.89;94.83;100051.56;5126871;28;20461;-73
2020/12/23 05:05:13;;;;;;;31.87;19.50;;;;;;;8.23;95.17;100054.06;5124678;28;20482;-72
2020/12/23 05:07:39;;;;;;;50.80;23.60;;;;;;;8.09;94.68;100058.72;5115296;28;20454;-73
2020/12/23 05:10:06;;;;;;;40.83;23.87;;;;;;;7.98;94.70;100049.94;5101058;28;20447;-72
2020/12/23 05:12:32;;;;;;;41.90;23.63;;;;;;;8.01;94.75;100055.00;5104271;28;20566;-73
2020/12/23 05:15:03;;;;;;;39.70;23.30;;;;;;;7.98;94.33;100050.78;5105216;28;20504;-73
2020/12/23 05:17:30;;;;;;;39.27;21.47;;;;;;;7.89;94.64;100047.06;5103526;28;20482;-73
2020/12/23 05:19:56;;;;;;;50.67;22.17;;;;;;;7.89;94.89;100055.06;5105702;28;20465;-73
2020/12/23 05:22:22;;;;;;;42.03;22.00;;;;;;;7.90;95.14;100046.09;5103219;28;20526;-74
2020/12/23 05:24:53;;;;;;;42.90;22.20;;;;;;;7.83;95.20;100034.28;5104392;28;20451;-73
2020/12/23 05:27:21;;;;;;;46.90;22.43;;;;;;;7.91;95.32;100039.78;5103528;28;20502;-73
2020/12/23 05:29:48;;;;;;;41.87;23.20;;;;;;;7.87;95.29;100034.88;5105347;28;20485;-73
2020/12/23 05:32:15;;;;;;;43.23;22.77;;;;;;;7.88;95.16;100036.53;5102794;28;20495;-73
2020/12/23 05:34:43;;;;;;;40.03;21.80;;;;;;;7.89;95.17;100041.75;5105391;28;20439;-74
2020/12/23 05:37:09;;;;;;;39.27;21.87;;;;;;;7.91;95.36;100039.78;5101999;28;20491;-73
2020/12/23 05:39:35;;;;;;;38.23;23.50;;;;;;;7.87;95.13;100038.38;5104779;28;20442;-73
2020/12/23 05:42:02;;;;;;;40.00;22.67;;;;;;;7.95;95.16;100044.88;5103357;28;20498;-73
2020/12/23 05:44:29;;;;;;;43.07;20.63;;;;;;;8.08;95.19;100042.88;5104994;28;20447;-73
2020/12/23 05:46:56;;;;;;;43.20;21.60;;;;;;;8.00;94.96;100045.31;5102097;28;20475;-73
2020/12/23 05:49:24;;;;;;;40.63;22.33;;;;;;;7.91;95.37;100036.28;5104872;28;20481;-73
2020/12/23 05:51:51;;;;;;;44.60;21.10;;;;;;;7.81;95.37;100041.56;5102165;28;20525;-73
2020/12/23 05:54:18;;;;;;;39.53;20.67;;;;;;;7.86;95.47;100039.38;5103850;28;20455;-73
2020/12/23 05:56:45;;;;;;;40.67;21.13;;;;;;;7.88;95.41;100034.75;5102767;28;21009;-73
2020/12/23 05:59:11;;;;;;;37.27;20.13;;;;;;;7.90;95.34;100037.28;5104898;28;20415;-73
2020/12/23 06:01:38;;;;;;;44.53;20.40;;;;;;;7.90;95.46;100037.28;5102539;28;20877;-73
2020/12/23 06:04:05;;;;;;;38.70;20.43;;;;;;;7.96;95.29;100035.91;5104576;28;20458;-73
2020/12/23 06:06:33;;;;;;;37.47;19.17;;;;;;;8.00;95.38;100034.69;5092354;28;20490;-73
2020/12/23 06:09:00;;;;;;;37.50;20.27;;;;;;;7.96;95.36;100033.25;5117605;28;20552;-73
2020/12/23 06:11:29;;;;;;;35.40;20.30;;;;;;;8.06;95.41;100036.84;5122911;28;20494;-73
2020/12/23 06:14:10;;;;;;;38.07;19.70;;;;;;;8.07;95.08;100036.72;5123466;28;20453;-73
2020/12/23 06:16:37;;;;;;;35.63;20.07;;;;;;;7.99;95.17;100028.50;5118354;28;20503;-73
2020/12/23 06:19:05;;;;;;;36.23;21.27;;;;;;;7.95;95.14;100031.56;5110253;28;20471;-73
2020/12/23 06:21:32;;;;;;;39.40;21.33;;;;;;;7.91;95.26;100026.47;5117949;28;20481;-73
2020/12/23 06:24:02;;;;;;;37.23;20.90;;;;;;;7.93;95.29;100023.69;5123784;28;20454;-73
2020/12/23 06:26:30;;;;;;;36.07;19.80;;;;;;;8.13;95.44;100015.84;5121797;28;20561;-73
2020/12/23 06:28:57;;;;;;;34.57;19.30;;;;;;;8.16;94.68;100010.25;5124250;28;20437;-73
2020/12/23 06:31:28;;;;;;;36.00;19.40;;;;;;;8.05;94.67;99997.84;5121433;28;20478;-73
2020/12/23 06:33:54;;;;;;;33.40;18.03;;;;;;;8.04;94.70;99986.38;5124064;28;20442;-73
2020/12/23 06:36:20;;;;;;;40.77;20.27;;;;;;;7.98;95.31;99978.06;5122604;28;20478;-73
2020/12/23 06:38:47;;;;;;;39.90;20.00;;;;;;;8.07;95.15;99962.16;5123278;28;20454;-73
2020/12/23 06:41:22;;;;;;;42.40;19.33;;;;;;;7.96;95.16;99967.53;5123066;28;20504;-73
2020/12/23 06:43:55;;;;;;;37.73;19.43;;;;;;;7.92;95.36;99963.47;5123866;28;20504;-73
2020/12/23 06:46:21;;;;;;;42.17;20.20;;;;;;;7.83;95.79;99975.72;5115655;28;20451;-73
2020/12/23 06:48:47;;;;;;;37.07;19.37;;;;;;;7.90;95.67;99978.72;5124553;28;20465;-73
2020/12/23 06:51:40;;;;;;;40.57;18.80;;;;;;;7.88;95.95;99980.66;5121704;28;20494;-73
2020/12/23 06:54:08;;;;;;;33.30;17.97;;;;;;;7.93;95.92;99978.44;5123397;28;20446;-72
2020/12/23 06:56:46;;;;;;;32.23;17.10;;;;;;;8.05;95.85;99976.56;5119353;28;20466;-68
2020/12/23 06:59:52;;;;;;;38.50;19.07;;;;;;;8.05;95.72;99980.06;5120110;28;20449;-68
2020/12/23 07:02:18;;;;;;;40.10;18.63;;;;;;;8.08;95.84;99981.63;5106475;28;20481;-69
2020/12/23 07:04:48;;;;;;;36.03;18.43;;;;;;;8.10;95.38;99977.00;5123361;28;20474;-69
2020/12/23 07:07:33;;;;;;;44.50;19.80;;;;;;;8.32;95.45;99981.34;5118104;27;20507;-69
2020/12/23 07:10:08;;;;;;;33.47;18.17;;;;;;;8.27;95.01;99978.22;5120955;28;20540;-68
2020/12/23 07:12:35;;;;;;;34.90;16.83;;;;;;;8.22;94.87;99972.47;5120427;28;20469;-68
2020/12/23 07:15:05;;;;;;;34.23;17.80;;;;;;;8.23;95.24;99963.50;5121460;28;20477;-73
2020/12/23 07:17:32;;;;;;;36.50;18.60;;;;;;;8.18;95.11;99969.22;5119594;28;20476;-73
2020/12/23 07:19:59;;;;;;;43.57;19.43;;;;;;;8.08;95.19;99961.16;5120850;28;20483;-73
2020/12/23 07:22:26;;;;;;;49.37;19.07;;;;;;;8.06;95.51;99960.47;5117723;28;20470;-71
2020/12/23 07:24:55;;;;;;;37.97;18.40;;;;;;;8.07;95.69;99954.16;5121485;28;20523;-76
2020/12/23 07:27:25;;;;;;;33.87;15.77;;;;;;;8.01;95.83;99959.16;5119351;28;20481;-71
2020/12/23 07:29:56;;;;;;;54.23;19.60;;;;;;;7.97;95.52;99955.06;5120872;28;20461;-72
2020/12/23 07:32:24;;;;;;;61.83;18.23;;;;;;;7.96;95.78;99961.38;5118652;28;20486;-73
2020/12/23 07:34:50;;;;;;;74.30;47.80;;;;;;;7.97;96.14;99963.06;5122296;28;20468;-72
2020/12/23 07:37:17;;;;;;;37.97;18.20;;;;;;;7.99;95.78;99961.13;5122150;28;20497;-73
2020/12/23 07:39:48;;;;;;;37.63;18.73;;;;;;;7.99;96.26;99961.13;5124493;28;20466;-73
2020/12/23 07:42:18;;;;;;;37.30;18.90;;;;;;;8.16;95.89;99957.84;5119942;28;20469;-72
2020/12/23 07:44:50;;;;;;;36.37;18.00;;;;;;;8.16;95.70;99959.66;5120426;27;20537;-74
2020/12/23 07:47:21;;;;;;;37.70;18.53;;;;;;;8.16;96.08;99959.66;5118473;28;20570;-75
2020/12/23 07:49:58;;;;;;;37.10;17.93;;;;;;;8.20;95.60;99961.94;5127698;28;20454;-76
2020/12/23 07:52:24;;;;;;;43.30;18.23;;;;;;;8.18;96.00;99963.06;5124094;28;20844;-76
2020/12/23 07:54:50;;;;;;;41.20;16.53;;;;;;;8.22;95.77;99964.47;5127535;28;20454;-74
2020/12/23 07:57:27;;;;;;;47.80;18.50;;;;;;;8.23;95.99;99960.84;5117306;28;20474;-71
2020/12/23 08:00:00;;;;;;;39.67;19.03;;;;;;;8.20;95.73;99958.44;5126532;28;20799;-78
2020/12/23 08:02:26;;;;;;;47.57;18.63;;;;;;;8.29;95.78;99969.13;5125569;28;20481;-73
2020/12/23 08:04:52;;;;;;;38.93;17.57;;;;;;;8.35;95.98;99970.44;5127559;28;20453;-73
2020/12/23 08:07:21;;;;;;;43.73;23.10;;;;;;;8.29;95.46;99969.13;5123095;28;20481;-73
2020/12/23 08:09:48;;;;;;;37.43;18.43;;;;;;;8.48;95.31;99956.91;5127287;28;20454;-73
2020/12/23 08:12:16;;;;;;;34.23;17.67;;;;;;;8.40;95.54;99962.88;5124701;28;20466;-73
2020/12/23 08:14:42;;;;;;;43.57;18.70;;;;;;;8.37;95.59;99952.50;5125157;28;20450;-73
2020/12/23 08:17:09;;;;;;;70.50;37.23;;;;;;;8.42;95.71;99954.72;5125108;28;20484;-73
2020/12/23 08:19:36;;;;;;;43.77;17.60;;;;;;;8.40;96.07;99964.69;5126912;28;20438;-73
2020/12/23 08:22:11;;;;;;;39.70;17.13;;;;;;;8.57;95.84;99958.75;5124172;28;20510;-73
2020/12/23 08:24:37;;;;;;;45.87;20.50;;;;;;;8.44;95.94;99948.34;5126896;28;20548;-73
2020/12/23 08:27:04;;;;;;;43.80;16.67;;;;;;;8.43;96.18;99954.63;5125712;28;20481;-73
2020/12/23 08:29:30;;;;;;;45.07;20.60;;;;;;;8.43;96.45;99959.97;5125193;28;20430;-73
2020/12/23 08:31:57;;;;;;;100.67;49.23;;;;;;;8.55;96.09;99952.72;5125203;28;20493;-73
2020/12/23 08:34:26;;;;;;;38.93;18.73;;;;;;;8.56;96.46;99946.41;5124248;28;20448;-74
2020/12/23 08:36:53;;;;;;;36.30;15.97;;;;;;;8.66;96.53;99941.09;5123791;28;20832;-75
2020/12/23 08:39:24;;;;;;;39.60;17.90;;;;;;;8.72;96.50;99937.06;5127035;28;20453;-73
2020/12/23 08:41:50;;;;;;;46.40;23.90;;;;;;;8.76;96.61;99933.97;5125452;28;20467;-74
2020/12/23 08:44:23;;;;;;;49.90;25.17;;;;;;;8.73;96.31;99934.28;5125411;28;20816;-73
2020/12/23 08:46:49;;;;;;;54.57;32.90;;;;;;;8.84;96.19;99930.66;5125016;28;20523;-71
2020/12/23 08:49:16;;;;;;;50.33;22.20;;;;;;;8.88;96.18;99923.22;5126905;28;20422;-70
2020/12/23 08:51:43;;;;;;;40.30;18.57;;;;;;;8.96;96.48;99918.03;5124182;28;20478;-70
2020/12/23 08:54:13;;;;;;;35.13;16.00;;;;;;;9.01;96.07;99919.31;5126247;28;20450;-71
2020/12/23 08:56:45;;;;;;;37.87;15.57;;;;;;;9.07;95.77;99915.22;5122786;28;20493;-72
2020/12/23 08:59:12;;;;;;;36.27;16.77;;;;;;;9.11;95.77;99915.78;5123915;28;20446;-72
2020/12/23 09:01:38;;;;;;;37.80;17.53;;;;;;;9.07;96.07;99917.91;5124210;28;20469;-76
2020/12/23 09:04:07;;;;;;;51.60;28.40;;;;;;;9.05;96.13;99915.38;5126389;28;20985;-78
2020/12/23 09:06:33;;;;;;;47.90;34.73;;;;;;;9.13;95.93;99911.16;5123622;28;20851;-81
2020/12/23 09:09:15;;;;;;;30.57;16.77;;;;;;;9.17;96.46;99904.59;5125836;28;20542;-76
2020/12/23 09:11:42;;;;;;;39.73;18.30;;;;;;;9.22;96.24;99903.16;5125043;28;20470;-80
2020/12/23 09:14:19;;;;;;;35.30;16.53;;;;;;;9.29;96.05;99907.94;5125078;28;20446;-73
2020/12/23 09:16:55;;;;;;;38.67;24.27;;;;;;;9.30;96.34;99899.78;5124833;28;20465;-73
2020/12/23 09:19:49;;;;;;;26.00;14.60;;;;;;;9.38;96.57;99886.59;5126248;28;20445;-72
2020/12/23 09:22:41;;;;;;;30.47;17.20;;;;;;;9.40;96.35;99879.28;5123374;28;20470;-76
2020/12/23 09:25:22;;;;;;;21.10;11.83;;;;;;;9.49;96.13;99885.59;5105048;28;20499;-74
2020/12/23 09:27:49;;;;;;;26.63;11.70;;;;;;;9.53;95.96;99896.81;5125452;28;20521;-76
2020/12/23 09:30:30;;;;;;;16.50;9.50;;;;;;;9.67;95.82;99880.38;5122271;27;20434;-73
2020/12/23 09:32:56;;;;;;;12.33;8.00;;;;;;;9.71;95.53;99876.44;5124947;28;20470;-75
2020/12/23 09:35:24;;;;;;;10.33;6.53;;;;;;;9.85;95.33;99871.63;5123689;28;20438;-73
2020/12/23 09:38:05;;;;;;;9.07;6.10;;;;;;;9.89;94.79;99868.50;5123448;28;20965;-76
2020/12/23 09:40:32;;;;;;;9.47;6.93;;;;;;;10.02;94.65;99864.69;5122535;27;20515;-81
2020/12/23 09:42:58;;;;;;;9.50;5.17;;;;;;;10.05;94.40;99859.88;5125619;28;20423;-70
2020/12/23 09:45:24;;;;;;;7.83;4.80;;;;;;;10.02;94.67;99854.84;5123646;28;20462;-70
2020/12/23 09:47:51;;;;;;;7.13;5.30;;;;;;;10.03;94.59;99850.31;5121067;27;20447;-70
2020/12/23 09:50:17;;;;;;;8.50;7.43;;;;;;;9.90;94.76;99848.00;5112997;27;20462;-68
2020/12/23 09:52:43;;;;;;;7.13;5.47;;;;;;;10.06;95.20;99847.38;5123679;28;20478;-69
2020/12/23 09:55:09;;;;;;;5.63;4.63;;;;;;;10.06;94.68;99845.53;5110999;28;20454;-69
2020/12/23 09:57:37;;;;;;;7.43;5.20;;;;;;;10.10;94.57;99840.72;5139128;27;20438;-72
2020/12/23 10:00:05;;;;;;;7.80;6.30;;;;;;;10.13;94.18;99840.44;5124751;28;20446;-71
2020/12/23 10:02:31;;;;;;;7.40;5.63;;;;;;;10.09;94.50;99839.91;5123019;28;20454;-71
2020/12/23 10:04:57;;;;;;;8.30;6.57;;;;;;;10.20;93.59;99844.19;5124315;28;20461;-69
2020/12/23 10:07:23;;;;;;;7.33;5.77;;;;;;;10.15;94.18;99839.28;5121793;28;20485;-72
2020/12/23 10:09:50;;;;;;;7.73;5.83;;;;;;;10.27;93.61;99831.09;5115162;28;20447;-72
2020/12/23 10:12:18;;;;;;;7.57;6.40;;;;;;;10.12;94.65;99842.28;5102584;28;20471;-73
2020/12/23 10:14:45;;;;;;;9.33;7.47;;;;;;;10.18;94.33;99838.16;5103400;28;20447;-73
2020/12/23 10:17:11;;;;;;;9.80;8.10;;;;;;;10.29;93.71;99832.59;5102943;28;20482;-72
2020/12/23 10:19:38;;;;;;;9.40;8.20;;;;;;;10.20;94.14;99830.84;5102940;28;20463;-74
2020/12/23 10:22:04;;;;;;;11.73;9.20;;;;;;;10.29;93.91;99832.59;5101760;28;20467;-72
2020/12/23 10:24:30;;;;;;;11.20;10.00;;;;;;;10.24;94.08;99818.88;5103877;28;20490;-70
2020/12/23 10:26:56;;;;;;;9.90;8.90;;;;;;;10.27;94.38;99826.56;5109680;28;20474;-67
2020/12/23 10:29:23;;;;;;;12.80;9.37;;;;;;;10.31;94.03;99829.78;5123669;28;20456;-78
2020/12/23 10:31:50;;;;;;;11.13;9.40;;;;;;;10.24;94.38;99816.22;5122622;28;20489;-72
2020/12/23 10:34:16;;;;;;;12.93;10.50;;;;;;;10.33;93.85;99804.66;5122384;28;20994;-73
2020/12/23 10:36:43;;;;;;;10.60;9.13;;;;;;;10.34;93.57;99800.13;5112514;28;20976;-72
2020/12/23 10:39:09;;;;;;;13.10;9.40;;;;;;;10.40;93.12;99785.31;5104074;28;20515;-73
2020/12/23 10:41:35;;;;;;;10.50;9.00;;;;;;;10.47;92.63;99784.59;5103750;28;20485;-72
2020/12/23 10:44:01;;;;;;;10.07;9.07;;;;;;;10.50;92.85;99784.28;5103097;28;20439;-72
2020/12/23 10:46:27;;;;;;;12.80;11.20;;;;;;;10.45;92.48;99778.56;5107457;28;20493;-73
2020/12/23 10:48:54;;;;;;;10.13;9.10;;;;;;;10.63;92.61;99780.41;5121467;28;20442;-71
2020/12/23 10:51:21;;;;;;;15.80;10.60;;;;;;;10.58;92.36;99766.66;5115281;28;20473;-72
2020/12/23 10:53:47;;;;;;;10.47;8.57;;;;;;;10.69;91.55;99769.06;5123891;28;20434;-72
2020/12/23 10:56:13;;;;;;;10.00;8.90;;;;;;;10.64;92.42;99780.25;5109190;28;20479;-70
2020/12/23 10:58:39;;;;;;;11.07;8.50;;;;;;;10.69;91.88;99777.97;5112990;28;20426;-72
2020/12/23 11:01:06;;;;;;;10.30;9.07;;;;;;;10.65;92.15;99768.53;5105756;28;20485;-72
2020/12/23 11:03:32;;;;;;;11.97;9.67;;;;;;;10.72;92.16;99763.44;5101711;28;20487;-71
2020/12/23 11:05:59;;;;;;;10.47;8.43;;;;;;;10.73;92.01;99754.44;5107065;28;20512;-72
2020/12/23 11:08:26;;;;;;;8.77;7.80;;;;;;;10.69;91.10;99748.56;5126813;28;20528;-72
2020/12/23 11:10:52;;;;;;;9.17;7.33;;;;;;;10.62;91.55;99744.78;5125149;28;20496;-71
2020/12/23 11:13:19;;;;;;;7.30;6.50;;;;;;;10.59;92.04;99746.94;5127072;28;20474;-74
2020/12/23 11:15:45;;;;;;;6.57;5.77;;;;;;;10.59;91.95;99741.59;5114767;28;20474;-73
2020/12/23 11:18:11;;;;;;;8.60;6.10;;;;;;;10.61;91.78;99739.63;5122695;28;20468;-72
2020/12/23 11:20:38;;;;;;;7.33;5.60;;;;;;;10.67;91.46;99733.66;5118218;28;20487;-72
2020/12/23 11:23:05;;;;;;;8.70;5.00;;;;;;;10.72;90.60;99721.50;5113739;28;20435;-73
2020/12/23 11:25:31;;;;;;;5.93;4.73;;;;;;;10.69;91.14;99718.28;5111065;28;20470;-72